createdAt,value
2022-12-05T00:01:51.310Z,13.30
2022-12-05T00:04:19.956Z,12.03
2022-12-05T00:06:49.375Z,12.70
2022-12-05T00:09:17.372Z,12.93
2022-12-05T00:11:47.002Z,11.67
2022-12-05T00:14:15.509Z,13.40
2022-12-05T00:16:44.697Z,11.83
2022-12-05T00:19:15.058Z,12.67
2022-12-05T00:21:44.116Z,10.67
2022-12-05T00:24:16.128Z,12.27
2022-12-05T00:26:44.434Z,12.87
2022-12-05T00:29:12.672Z,12.27
2022-12-05T00:31:40.869Z,10.30
2022-12-05T00:34:08.972Z,11.50
2022-12-05T00:36:37.776Z,11.87
2022-12-05T00:39:10.159Z,11.43
2022-12-05T00:41:39.832Z,11.77
2022-12-05T00:44:08.136Z,12.67
2022-12-05T00:46:36.674Z,11.30
2022-12-05T00:49:06.729Z,11.73
2022-12-05T00:51:37.005Z,11.50
2022-12-05T00:54:07.795Z,11.93
2022-12-05T00:56:36.019Z,11.93
2022-12-05T00:59:06.308Z,10.90
2022-12-05T01:01:36.603Z,11.00
2022-12-05T01:04:07.227Z,10.10
2022-12-05T01:06:35.545Z,11.57
2022-12-05T01:09:05.194Z,11.33
2022-12-05T01:11:39.307Z,10.97
2022-12-05T01:14:10.881Z,11.57
2022-12-05T01:16:41.596Z,11.50
2022-12-05T01:19:13.980Z,11.57
2022-12-05T01:21:42.553Z,11.07
2022-12-05T01:24:10.888Z,11.27
2022-12-05T01:26:39.512Z,12.17
2022-12-05T01:29:07.732Z,11.60
2022-12-05T01:31:38.421Z,9.20
2022-12-05T01:34:08.803Z,9.70
2022-12-05T01:36:39.264Z,10.77
2022-12-05T01:39:07.895Z,10.40
2022-12-05T01:41:38.257Z,10.90
2022-12-05T01:44:09.610Z,10.47
2022-12-05T01:46:40.883Z,9.90
2022-12-05T01:49:12.973Z,9.80
2022-12-05T01:51:46.224Z,10.40
2022-12-05T01:54:16.087Z,9.50
2022-12-05T01:56:48.728Z,10.83
2022-12-05T01:59:18.458Z,9.20
2022-12-05T02:01:47.904Z,9.40
2022-12-05T02:04:16.308Z,9.77
2022-12-05T02:06:44.800Z,9.97
2022-12-05T02:09:12.817Z,8.50
2022-12-05T02:11:50.740Z,10.60
2022-12-05T02:14:28.289Z,8.80
2022-12-05T02:17:06.493Z,9.07
2022-12-05T02:20:07.162Z,7.93
2022-12-05T02:23:07.989Z,9.30
2022-12-05T02:26:11.199Z,9.53
2022-12-05T02:28:55.322Z,10.90
2022-12-05T02:31:35.021Z,10.27
2022-12-05T02:34:08.044Z,10.10
2022-12-05T02:36:42.201Z,9.43
2022-12-05T02:39:16.797Z,8.63
2022-12-05T02:41:52.049Z,9.67
2022-12-05T02:44:27.204Z,10.50
2022-12-05T02:46:57.890Z,10.40
2022-12-05T02:49:31.336Z,9.40
2022-12-05T02:52:01.601Z,11.30
2022-12-05T02:54:33.776Z,10.70
2022-12-05T02:57:02.866Z,10.27
2022-12-05T02:59:30.880Z,11.13
2022-12-05T03:02:00.208Z,10.17
2022-12-05T03:04:29.346Z,11.67
2022-12-05T03:07:01.098Z,12.07
2022-12-05T03:09:35.034Z,11.77
2022-12-05T03:12:11.636Z,10.07
2022-12-05T03:14:45.713Z,11.60
2022-12-05T03:17:21.196Z,11.00
2022-12-05T03:19:56.839Z,10.53
2022-12-05T03:22:31.454Z,10.93
2022-12-05T03:25:00.439Z,13.83
2022-12-05T03:27:33.397Z,10.43
2022-12-05T03:30:05.356Z,11.03
2022-12-05T03:32:42.144Z,11.63
2022-12-05T03:35:18.958Z,11.73
2022-12-05T03:37:52.954Z,11.90
2022-12-05T03:40:28.755Z,11.60
2022-12-05T03:43:03.044Z,12.13
2022-12-05T03:45:40.642Z,11.03
2022-12-05T03:48:16.069Z,10.50
2022-12-05T03:50:48.421Z,10.60
2022-12-05T03:53:21.085Z,12.10
2022-12-05T03:55:55.811Z,13.13
2022-12-05T03:58:29.968Z,9.33
2022-12-05T04:01:01.196Z,12.13
2022-12-05T04:03:39.767Z,12.57
2022-12-05T04:06:14.645Z,11.23
2022-12-05T04:08:48.363Z,10.57
2022-12-05T04:11:20.457Z,11.20
2022-12-05T04:13:51.587Z,10.40
2022-12-05T04:16:42.417Z,11.77
2022-12-05T04:19:17.884Z,10.47
2022-12-05T04:21:50.126Z,11.00
2022-12-05T04:24:39.759Z,12.27
2022-12-05T04:27:19.279Z,11.97
2022-12-05T04:29:56.661Z,11.50
2022-12-05T04:32:31.295Z,12.33
2022-12-05T04:35:06.970Z,10.50
2022-12-05T04:37:41.289Z,11.60
2022-12-05T04:40:13.193Z,10.30
2022-12-05T04:42:43.834Z,12.13
2022-12-05T04:45:14.129Z,11.47
2022-12-05T04:47:48.082Z,10.07
2022-12-05T04:50:18.810Z,10.77
2022-12-05T04:52:50.947Z,10.50
2022-12-05T04:55:25.838Z,11.83
2022-12-05T04:58:01.853Z,11.40
2022-12-05T05:00:31.776Z,10.07
2022-12-05T05:03:07.494Z,9.53
2022-12-05T05:05:39.736Z,10.50
2022-12-05T05:08:18.419Z,10.67
2022-12-05T05:10:56.026Z,10.73
2022-12-05T05:13:24.252Z,10.20
2022-12-05T05:15:52.388Z,10.77
2022-12-05T05:18:20.525Z,10.37
2022-12-05T05:20:49.919Z,8.70
2022-12-05T05:23:17.994Z,10.60
2022-12-05T05:25:46.062Z,10.07
2022-12-05T05:28:16.999Z,9.50
2022-12-05T05:30:45.152Z,10.00
2022-12-05T05:33:13.297Z,9.80
2022-12-05T05:35:41.420Z,8.97
2022-12-05T05:38:10.843Z,9.40
2022-12-05T05:40:39.000Z,9.90
2022-12-05T05:43:06.991Z,9.50
2022-12-05T05:45:35.018Z,9.27
2022-12-05T05:48:02.973Z,9.30
2022-12-05T05:50:30.927Z,9.13
2022-12-05T05:52:58.956Z,10.80
2022-12-05T05:55:28.304Z,11.00
2022-12-05T05:57:56.428Z,8.80
2022-12-05T06:00:24.596Z,9.30
2022-12-05T06:02:52.734Z,8.87
2022-12-05T06:05:20.906Z,10.87
2022-12-05T06:07:49.091Z,9.73
2022-12-05T06:10:17.171Z,10.17
2022-12-05T06:12:46.801Z,10.13
2022-12-05T06:15:17.472Z,9.97
2022-12-05T06:17:45.501Z,9.03
2022-12-05T06:20:13.967Z,9.23
2022-12-05T06:22:42.066Z,8.00
2022-12-05T06:25:13.630Z,8.00
2022-12-05T06:27:50.172Z,11.60
2022-12-05T06:30:18.491Z,9.13
2022-12-05T06:32:46.492Z,10.00
2022-12-05T06:35:16.265Z,8.90
2022-12-05T06:37:44.682Z,9.13
2022-12-05T06:40:13.915Z,9.03
2022-12-05T06:42:42.093Z,10.43
2022-12-05T06:45:12.723Z,9.07
2022-12-05T06:47:40.780Z,9.17
2022-12-05T06:50:10.095Z,9.10
2022-12-05T06:52:38.150Z,9.03
2022-12-05T06:55:07.189Z,9.33
2022-12-05T06:57:35.601Z,9.73
2022-12-05T07:00:18.702Z,8.77
2022-12-05T07:02:48.101Z,9.20
2022-12-05T07:05:16.303Z,10.33
2022-12-05T07:07:44.405Z,9.27
2022-12-05T07:10:12.597Z,9.10
2022-12-05T07:12:40.639Z,8.07
2022-12-05T07:15:09.378Z,9.77
2022-12-05T07:17:38.774Z,8.60
2022-12-05T07:20:10.381Z,8.77
2022-12-05T07:22:38.791Z,8.60
2022-12-05T07:25:07.539Z,10.70
2022-12-05T07:27:35.697Z,9.03
2022-12-05T07:30:03.811Z,9.33
2022-12-05T07:32:33.873Z,10.73
2022-12-05T07:35:01.970Z,9.67
2022-12-05T07:37:31.362Z,9.90
2022-12-05T07:39:59.572Z,7.50
2022-12-05T07:42:27.881Z,9.47
2022-12-05T07:44:55.900Z,8.53
2022-12-05T07:47:24.258Z,8.83
2022-12-05T07:49:52.320Z,7.57
2022-12-05T07:52:20.314Z,10.30
2022-12-05T07:54:49.665Z,9.83
2022-12-05T07:57:17.753Z,9.27
2022-12-05T07:59:45.793Z,8.30
2022-12-05T08:02:13.904Z,8.87
2022-12-05T08:04:45.570Z,8.40
2022-12-05T08:07:13.564Z,9.70
2022-12-05T08:09:41.731Z,8.20
2022-12-05T08:12:11.085Z,9.40
2022-12-05T08:14:39.291Z,8.20
2022-12-05T08:17:07.411Z,9.17
2022-12-05T08:19:35.498Z,8.37
2022-12-05T08:22:03.492Z,8.63
2022-12-05T08:24:31.563Z,7.60
2022-12-05T08:26:59.613Z,9.33
2022-12-05T08:29:29.062Z,8.17
2022-12-05T08:31:57.074Z,7.73
2022-12-05T08:34:25.143Z,8.40
2022-12-05T08:36:53.127Z,7.67
2022-12-05T08:39:21.177Z,7.63
2022-12-05T08:41:50.588Z,7.37
2022-12-05T08:44:19.014Z,7.60
2022-12-05T08:46:50.823Z,7.33
2022-12-05T08:49:19.419Z,6.30
2022-12-05T08:51:47.601Z,7.63
2022-12-05T08:54:17.331Z,6.90
2022-12-05T08:56:45.383Z,7.00
2022-12-05T08:59:13.521Z,7.70
2022-12-05T09:01:42.239Z,7.63
2022-12-05T09:04:12.375Z,8.37
2022-12-05T09:06:41.423Z,7.07
2022-12-05T09:09:11.789Z,7.57
2022-12-05T09:11:45.996Z,6.87
2022-12-05T09:14:14.525Z,6.63
2022-12-05T09:16:44.545Z,7.30
2022-12-05T09:19:16.322Z,7.60
2022-12-05T09:21:45.187Z,7.27
2022-12-05T09:24:13.999Z,6.33
2022-12-05T09:26:43.008Z,8.37
2022-12-05T09:29:16.720Z,6.67
2022-12-05T09:31:46.300Z,7.17
2022-12-05T09:34:17.920Z,6.80
2022-12-05T09:36:46.092Z,6.90
2022-12-05T09:39:14.177Z,7.00
2022-12-05T09:42:06.094Z,6.27
2022-12-05T09:44:56.843Z,6.77
2022-12-05T09:47:35.507Z,5.73
2022-12-05T09:50:18.295Z,7.17
2022-12-05T09:52:55.973Z,6.57
2022-12-05T09:55:24.235Z,5.87
2022-12-05T09:57:55.199Z,6.33
2022-12-05T10:00:23.484Z,5.60
2022-12-05T10:02:59.207Z,6.73
2022-12-05T10:05:37.010Z,7.13
2022-12-05T10:08:16.866Z,6.07
2022-12-05T10:10:56.495Z,5.60
2022-12-05T10:13:46.338Z,6.00
2022-12-05T10:16:20.106Z,5.80
2022-12-05T10:18:52.959Z,6.73
2022-12-05T10:21:26.197Z,6.03
2022-12-05T10:23:58.759Z,5.50
2022-12-05T10:26:31.143Z,6.70
2022-12-05T10:29:08.557Z,5.60
2022-12-05T10:31:39.387Z,6.13
2022-12-05T10:34:15.971Z,4.60
2022-12-05T10:36:55.706Z,5.93
2022-12-05T10:39:23.959Z,6.63
2022-12-05T10:41:52.089Z,5.80
2022-12-05T10:44:20.272Z,6.23
2022-12-05T10:46:48.764Z,5.67
2022-12-05T10:49:16.908Z,5.03
2022-12-05T10:51:46.405Z,4.67
2022-12-05T10:54:19.307Z,4.83
2022-12-05T10:56:49.134Z,4.17
2022-12-05T10:59:19.229Z,5.27
2022-12-05T11:01:51.041Z,3.60
2022-12-05T11:04:29.754Z,3.30
2022-12-05T11:07:01.179Z,3.90
2022-12-05T11:09:31.312Z,3.43
2022-12-05T11:12:16.745Z,3.47
2022-12-05T11:15:00.342Z,3.17
2022-12-05T11:17:33.226Z,3.23
2022-12-05T11:20:01.748Z,4.10
2022-12-05T11:22:36.285Z,4.00
2022-12-05T11:25:26.202Z,4.90
2022-12-05T11:27:57.156Z,3.50
2022-12-05T11:30:30.585Z,3.37
2022-12-05T11:33:13.330Z,3.40
2022-12-05T11:35:41.782Z,3.83
2022-12-05T11:38:13.323Z,3.40
2022-12-05T11:40:48.852Z,3.43
2022-12-05T11:43:35.661Z,3.50
2022-12-05T11:46:11.738Z,3.30
2022-12-05T11:48:56.758Z,3.57
2022-12-05T11:51:37.463Z,2.90
2022-12-05T11:55:03.437Z,3.03
2022-12-05T11:57:29.599Z,3.70
2022-12-05T12:00:19.068Z,3.33
2022-12-05T12:03:13.695Z,3.10
2022-12-05T12:05:50.997Z,3.60
2022-12-05T12:08:25.626Z,2.53
2022-12-05T12:11:06.937Z,2.30
2022-12-05T12:13:54.338Z,2.47
2022-12-05T12:16:30.735Z,2.80
2022-12-05T12:19:24.711Z,2.40
2022-12-05T12:22:06.294Z,2.47
2022-12-05T12:24:46.223Z,3.10
2022-12-05T12:27:24.547Z,4.27
2022-12-05T12:30:04.312Z,2.43
2022-12-05T12:32:44.071Z,2.00
2022-12-05T12:35:26.395Z,2.47
2022-12-05T12:38:08.161Z,2.40
2022-12-05T12:40:44.854Z,2.27
2022-12-05T12:43:52.754Z,2.63
2022-12-05T12:46:23.430Z,2.83
2022-12-05T12:49:10.434Z,2.80
2022-12-05T12:51:45.910Z,2.40
2022-12-05T12:55:01.485Z,2.40
2022-12-05T12:57:27.196Z,3.00
2022-12-05T13:00:23.412Z,2.10
2022-12-05T13:02:55.572Z,2.60
2022-12-05T13:05:31.578Z,2.10
2022-12-05T13:08:06.229Z,2.77
2022-12-05T13:10:39.442Z,2.23
2022-12-05T13:13:08.710Z,2.37
2022-12-05T13:15:44.657Z,2.53
2022-12-05T13:18:17.567Z,2.60
2022-12-05T13:20:48.951Z,2.17
2022-12-05T13:23:20.552Z,2.43
2022-12-05T13:25:50.682Z,2.67
2022-12-05T13:28:27.717Z,2.40
2022-12-05T13:31:06.333Z,2.07
2022-12-05T13:33:37.780Z,2.30
2022-12-05T13:36:27.354Z,2.50
2022-12-05T13:39:21.128Z,2.37
2022-12-05T13:42:09.755Z,2.70
2022-12-05T13:44:41.541Z,4.33
2022-12-05T13:47:26.115Z,6.97
2022-12-05T13:49:58.912Z,7.47
2022-12-05T13:52:31.144Z,7.40
2022-12-05T13:55:03.948Z,5.97
2022-12-05T13:57:54.075Z,4.13
2022-12-05T14:00:26.196Z,2.53
2022-12-05T14:02:57.998Z,2.53
2022-12-05T14:05:51.237Z,2.10
2022-12-05T14:08:57.870Z,2.80
2022-12-05T14:11:25.993Z,2.63
2022-12-05T14:13:56.234Z,4.47
2022-12-05T14:16:49.474Z,8.03
2022-12-05T14:19:57.251Z,7.53
2022-12-05T14:22:53.446Z,8.67
2022-12-05T14:25:58.500Z,8.43
2022-12-05T14:28:43.908Z,8.80
2022-12-05T14:31:30.940Z,9.67
2022-12-05T14:34:14.502Z,9.23
2022-12-05T14:36:59.871Z,9.10
2022-12-05T14:39:46.838Z,8.43
2022-12-05T14:42:28.059Z,9.47
2022-12-05T14:44:59.092Z,9.20
2022-12-05T14:47:31.596Z,10.50
2022-12-05T14:50:04.311Z,9.30
2022-12-05T14:52:35.336Z,9.27
2022-12-05T14:55:09.481Z,9.40
2022-12-05T14:57:46.306Z,9.60
2022-12-05T15:00:22.074Z,10.40
2022-12-05T15:02:52.797Z,8.93
2022-12-05T15:05:27.394Z,8.23
2022-12-05T15:07:58.579Z,9.80
2022-12-05T15:10:30.264Z,10.73
2022-12-05T15:13:00.425Z,9.60
2022-12-05T15:15:36.998Z,9.93
2022-12-05T15:18:15.204Z,10.53
2022-12-05T15:20:50.045Z,10.00
2022-12-05T15:23:45.572Z,10.23
2022-12-05T15:26:46.040Z,10.20
2022-12-05T15:29:13.973Z,11.03
2022-12-05T15:31:47.689Z,9.40
2022-12-05T15:34:21.022Z,9.50
2022-12-05T15:36:53.037Z,9.67
2022-12-05T15:39:25.805Z,9.80
2022-12-05T15:41:54.573Z,9.70
2022-12-05T15:44:27.563Z,9.33
2022-12-05T15:46:57.514Z,10.33
2022-12-05T15:49:27.422Z,11.57
2022-12-05T15:51:59.655Z,10.60
2022-12-05T15:54:33.396Z,10.47
2022-12-05T15:57:05.870Z,10.83
2022-12-05T15:59:39.316Z,10.57
2022-12-05T16:02:16.254Z,9.50
2022-12-05T16:04:50.521Z,10.47
2022-12-05T16:07:18.679Z,9.47
2022-12-05T16:09:48.737Z,10.63
2022-12-05T16:12:27.046Z,9.50
2022-12-05T16:15:00.312Z,10.07
2022-12-05T16:17:31.420Z,10.53
2022-12-05T16:20:14.975Z,9.80
2022-12-05T16:22:48.390Z,10.23
2022-12-05T16:25:19.538Z,10.20
2022-12-05T16:27:57.900Z,11.40
2022-12-05T16:30:26.663Z,10.63
2022-12-05T16:33:02.022Z,9.80
2022-12-05T16:35:33.371Z,9.97
2022-12-05T16:38:13.481Z,11.87
2022-12-05T16:40:52.378Z,11.60
2022-12-05T16:43:25.242Z,10.97
2022-12-05T16:45:56.345Z,11.67
2022-12-05T16:48:26.503Z,10.87
2022-12-05T16:51:15.199Z,11.03
2022-12-05T16:53:46.042Z,11.53
2022-12-05T16:56:17.681Z,10.50
2022-12-05T16:58:45.756Z,10.80
2022-12-05T17:01:18.896Z,11.47
2022-12-05T17:03:47.302Z,11.30
2022-12-05T17:06:16.108Z,10.73
2022-12-05T17:08:44.242Z,10.00
2022-12-05T17:11:17.854Z,11.10
2022-12-05T17:13:48.349Z,11.13
2022-12-05T17:16:17.186Z,11.53
2022-12-05T17:18:45.292Z,10.80
2022-12-05T17:21:16.830Z,10.57
2022-12-05T17:23:48.044Z,10.90
2022-12-05T17:26:19.507Z,12.50
2022-12-05T17:28:48.216Z,10.97
2022-12-05T17:31:17.412Z,11.60
2022-12-05T17:33:45.884Z,12.10
2022-12-05T17:36:14.784Z,11.93
2022-12-05T17:38:42.933Z,10.87
2022-12-05T17:41:17.419Z,12.07
2022-12-05T17:43:45.967Z,9.80
2022-12-05T17:46:16.663Z,9.70
2022-12-05T17:48:44.776Z,11.80
2022-12-05T17:51:14.397Z,11.00
2022-12-05T17:53:44.368Z,12.03
2022-12-05T17:56:13.555Z,10.83
2022-12-05T17:58:43.294Z,11.20
2022-12-05T18:01:15.511Z,11.27
2022-12-05T18:03:43.905Z,11.20
2022-12-05T18:06:12.149Z,11.77
2022-12-05T18:08:41.989Z,11.40
2022-12-05T18:11:10.006Z,10.87
2022-12-05T18:13:38.034Z,11.53
2022-12-05T18:16:08.261Z,11.43
2022-12-05T18:18:36.329Z,11.67
2022-12-05T18:21:05.983Z,12.20
2022-12-05T18:23:35.174Z,11.23
2022-12-05T18:26:03.273Z,12.70
2022-12-05T18:28:31.362Z,12.83
2022-12-05T18:31:11.453Z,12.73
2022-12-05T18:33:40.223Z,13.57
2022-12-05T18:36:10.214Z,13.30
2022-12-05T18:38:38.954Z,13.40
2022-12-05T18:41:07.751Z,12.57
2022-12-05T18:43:35.981Z,12.57
2022-12-05T18:46:05.184Z,13.63
2022-12-05T18:48:41.590Z,11.33
2022-12-05T18:51:12.294Z,13.10
2022-12-05T18:53:40.827Z,13.07
2022-12-05T18:56:26.736Z,12.80
2022-12-05T18:58:56.787Z,13.50
2022-12-05T19:01:25.866Z,13.30
2022-12-05T19:03:56.044Z,13.70
2022-12-05T19:06:26.723Z,14.10
2022-12-05T19:08:56.039Z,14.00
2022-12-05T19:11:25.891Z,15.03
2022-12-05T19:13:55.889Z,13.23
2022-12-05T19:16:23.939Z,15.40
2022-12-05T19:18:56.311Z,12.70
2022-12-05T19:21:24.928Z,11.67
2022-12-05T19:23:53.049Z,13.20
2022-12-05T19:26:21.627Z,13.53
2022-12-05T19:28:50.267Z,14.20
2022-12-05T19:31:20.148Z,13.40
2022-12-05T19:33:50.098Z,13.50
2022-12-05T19:36:21.493Z,14.10
2022-12-05T19:38:51.396Z,14.67
2022-12-05T19:41:22.316Z,12.53
2022-12-05T19:43:50.634Z,13.30
2022-12-05T19:46:20.537Z,14.17
2022-12-05T19:48:49.172Z,16.23
2022-12-05T19:51:18.836Z,15.90
2022-12-05T19:53:47.665Z,13.83
2022-12-05T19:56:17.136Z,13.67
2022-12-05T19:58:46.189Z,13.37
2022-12-05T20:01:16.462Z,13.80
2022-12-05T20:03:49.074Z,13.77
2022-12-05T20:06:18.017Z,13.73
2022-12-05T20:08:48.389Z,14.10
2022-12-05T20:11:18.485Z,13.33
2022-12-05T20:13:47.899Z,12.87
2022-12-05T20:16:21.483Z,11.50
2022-12-05T20:18:50.680Z,12.50
2022-12-05T20:21:21.950Z,13.87
2022-12-05T20:23:51.699Z,13.07
2022-12-05T20:26:21.905Z,12.50
2022-12-05T20:28:50.873Z,12.60
2022-12-05T20:31:21.826Z,12.40
2022-12-05T20:33:51.984Z,13.37
2022-12-05T20:36:21.944Z,13.30
2022-12-05T20:38:56.167Z,12.40
2022-12-05T20:41:24.644Z,11.10
2022-12-05T20:43:55.009Z,10.70
2022-12-05T20:46:23.507Z,11.77
2022-12-05T20:48:53.197Z,9.90
2022-12-05T20:51:23.370Z,10.23
2022-12-05T20:53:53.384Z,10.20
2022-12-05T20:56:25.129Z,9.30
2022-12-05T20:58:55.659Z,9.43
2022-12-05T21:01:25.201Z,9.13
2022-12-05T21:03:54.308Z,13.07
2022-12-05T21:06:24.997Z,13.00
2022-12-05T21:08:55.477Z,11.40
2022-12-05T21:11:25.264Z,12.07
2022-12-05T21:13:55.444Z,11.17
2022-12-05T21:16:24.061Z,11.70
2022-12-05T21:18:52.866Z,11.17
2022-12-05T21:21:23.077Z,10.23
2022-12-05T21:23:56.423Z,10.80
2022-12-05T21:26:25.631Z,10.87
2022-12-05T21:28:54.207Z,9.93
2022-12-05T21:31:24.454Z,9.67
2022-12-05T21:33:55.137Z,11.73
2022-12-05T21:36:24.334Z,10.73
2022-12-05T21:38:55.933Z,10.93
2022-12-05T21:41:26.555Z,10.03
2022-12-05T21:43:55.786Z,9.60
2022-12-05T21:46:24.440Z,8.57
2022-12-05T21:48:52.770Z,9.73
2022-12-05T21:51:21.555Z,8.57
2022-12-05T21:53:49.881Z,8.83
2022-12-05T21:56:19.844Z,8.83
2022-12-05T21:58:49.346Z,10.17
2022-12-05T22:01:19.164Z,10.10
2022-12-05T22:03:47.561Z,11.37
2022-12-05T22:06:16.282Z,9.30
2022-12-05T22:08:44.353Z,10.03
2022-12-05T22:11:14.646Z,10.10
2022-12-05T22:13:43.263Z,9.93
2022-12-05T22:16:13.545Z,9.73
2022-12-05T22:18:41.692Z,10.97
2022-12-05T22:21:12.814Z,10.17
2022-12-05T22:23:40.809Z,11.73
2022-12-05T22:26:11.041Z,10.70
2022-12-05T22:28:39.750Z,10.80
2022-12-05T22:31:10.181Z,9.90
2022-12-05T22:33:40.346Z,10.63
2022-12-05T22:36:10.624Z,8.70
2022-12-05T22:38:40.603Z,9.60
2022-12-05T22:41:11.074Z,11.20
2022-12-05T22:43:39.288Z,9.23
2022-12-05T22:46:09.071Z,9.50
2022-12-05T22:48:38.881Z,9.93
2022-12-05T22:51:08.782Z,9.33
2022-12-05T22:53:37.067Z,10.10
2022-12-05T22:56:08.563Z,10.40
2022-12-05T22:58:37.310Z,12.20
2022-12-05T23:01:14.243Z,10.67
2022-12-05T23:03:45.692Z,9.73
2022-12-05T23:06:15.303Z,11.10
2022-12-05T23:08:44.809Z,9.20
2022-12-05T23:11:13.324Z,11.30
2022-12-05T23:13:41.339Z,10.77
2022-12-05T23:16:11.457Z,9.70
2022-12-05T23:18:47.567Z,10.13
2022-12-05T23:21:21.596Z,8.97
2022-12-05T23:23:51.887Z,9.97
2022-12-05T23:26:21.675Z,11.13
2022-12-05T23:28:49.939Z,9.80
2022-12-05T23:31:18.432Z,9.03
2022-12-05T23:33:50.842Z,8.90
2022-12-05T23:36:21.625Z,9.30
2022-12-05T23:38:50.107Z,9.00
2022-12-05T23:41:21.157Z,9.37
2022-12-05T23:43:51.068Z,8.43
2022-12-05T23:46:21.740Z,9.80
2022-12-05T23:48:50.369Z,8.17
2022-12-05T23:51:22.296Z,7.80
2022-12-05T23:53:54.135Z,8.07
2022-12-05T23:56:24.219Z,7.37
2022-12-05T23:58:52.875Z,6.50
